sensor_id;sensor_type;location;lat;lon;timestamp;P1;durP1;ratioP1;P2;durP2;ratioP2
16743;SDS011;71724;-33.900;151.182;2024-02-16T00:00:09;19.73;;;8.95;;
16743;SDS011;71724;-33.900;151.182;2024-02-16T00:02:38;13.30;;;8.60;;
16743;SDS011;71724;-33.900;151.182;2024-02-16T00:05:10;16.50;;;9.07;;
16743;SDS011;71724;-33.900;151.182;2024-02-16T00:07:38;20.73;;;9.95;;
16743;SDS011;71724;-33.900;151.182;2024-02-16T00:10:06;19.92;;;10.27;;
16743;SDS011;71724;-33.900;151.182;2024-02-16T00:12:35;24.05;;;11.77;;
16743;SDS011;71724;-33.900;151.182;2024-02-16T00:15:03;20.00;;;12.02;;
16743;SDS011;71724;-33.900;151.182;2024-02-16T00:17:30;12.38;;;9.18;;
16743;SDS011;71724;-33.900;151.182;2024-02-16T00:20:00;20.42;;;10.85;;
16743;SDS011;71724;-33.900;151.182;2024-02-16T00:22:27;14.90;;;9.55;;
16743;SDS011;71724;-33.900;151.182;2024-02-16T00:24:54;12.23;;;8.05;;
16743;SDS011;71724;-33.900;151.182;2024-02-16T00:27:22;22.35;;;9.88;;
16743;SDS011;71724;-33.900;151.182;2024-02-16T00:29:49;12.65;;;7.93;;
16743;SDS011;71724;-33.900;151.182;2024-02-16T00:32:16;21.40;;;7.70;;
16743;SDS011;71724;-33.900;151.182;2024-02-16T00:34:45;9.20;;;5.40;;
16743;SDS011;71724;-33.900;151.182;2024-02-16T00:37:12;12.60;;;5.78;;
16743;SDS011;71724;-33.900;151.182;2024-02-16T00:39:39;8.02;;;5.00;;
16743;SDS011;71724;-33.900;151.182;2024-02-16T00:42:07;18.02;;;6.20;;
16743;SDS011;71724;-33.900;151.182;2024-02-16T00:44:35;17.08;;;5.80;;
16743;SDS011;71724;-33.900;151.182;2024-02-16T00:47:03;18.15;;;6.20;;
16743;SDS011;71724;-33.900;151.182;2024-02-16T00:49:35;15.23;;;6.10;;
16743;SDS011;71724;-33.900;151.182;2024-02-16T00:54:36;11.57;;;5.05;;
16743;SDS011;71724;-33.900;151.182;2024-02-16T00:57:09;15.63;;;5.68;;
16743;SDS011;71724;-33.900;151.182;2024-02-16T00:59:45;15.35;;;5.35;;
16743;SDS011;71724;-33.900;151.182;2024-02-16T01:02:15;22.38;;;6.07;;
16743;SDS011;71724;-33.900;151.182;2024-02-16T01:04:43;14.45;;;5.40;;
16743;SDS011;71724;-33.900;151.182;2024-02-16T01:07:12;17.35;;;5.32;;
16743;SDS011;71724;-33.900;151.182;2024-02-16T01:09:44;15.93;;;6.18;;
16743;SDS011;71724;-33.900;151.182;2024-02-16T01:12:18;8.52;;;4.80;;
16743;SDS011;71724;-33.900;151.182;2024-02-16T01:14:48;17.27;;;5.80;;
16743;SDS011;71724;-33.900;151.182;2024-02-16T01:17:17;21.40;;;5.78;;
16743;SDS011;71724;-33.900;151.182;2024-02-16T01:19:45;18.20;;;5.40;;
16743;SDS011;71724;-33.900;151.182;2024-02-16T01:22:18;14.90;;;6.13;;
16743;SDS011;71724;-33.900;151.182;2024-02-16T01:24:48;15.82;;;5.63;;
16743;SDS011;71724;-33.900;151.182;2024-02-16T01:27:17;17.23;;;5.38;;
16743;SDS011;71724;-33.900;151.182;2024-02-16T01:29:44;16.92;;;5.32;;
16743;SDS011;71724;-33.900;151.182;2024-02-16T01:32:22;16.15;;;5.22;;
16743;SDS011;71724;-33.900;151.182;2024-02-16T01:35:00;14.85;;;4.68;;
16743;SDS011;71724;-33.900;151.182;2024-02-16T01:37:31;12.93;;;4.72;;
16743;SDS011;71724;-33.900;151.182;2024-02-16T01:40:02;14.00;;;4.60;;
16743;SDS011;71724;-33.900;151.182;2024-02-16T01:42:30;11.60;;;4.45;;
16743;SDS011;71724;-33.900;151.182;2024-02-16T01:44:57;12.95;;;4.07;;
16743;SDS011;71724;-33.900;151.182;2024-02-16T01:47:24;16.95;;;4.40;;
16743;SDS011;71724;-33.900;151.182;2024-02-16T01:49:52;13.05;;;4.32;;
16743;SDS011;71724;-33.900;151.182;2024-02-16T01:52:19;10.18;;;4.40;;
16743;SDS011;71724;-33.900;151.182;2024-02-16T01:54:47;25.02;;;4.95;;
16743;SDS011;71724;-33.900;151.182;2024-02-16T01:57:14;14.30;;;5.03;;
16743;SDS011;71724;-33.900;151.182;2024-02-16T01:59:42;9.82;;;4.68;;
16743;SDS011;71724;-33.900;151.182;2024-02-16T02:02:11;7.10;;;4.28;;
16743;SDS011;71724;-33.900;151.182;2024-02-16T02:04:38;11.38;;;4.53;;
16743;SDS011;71724;-33.900;151.182;2024-02-16T02:07:15;12.13;;;5.15;;
16743;SDS011;71724;-33.900;151.182;2024-02-16T02:09:42;10.85;;;4.45;;
16743;SDS011;71724;-33.900;151.182;2024-02-16T02:12:10;11.68;;;3.95;;
16743;SDS011;71724;-33.900;151.182;2024-02-16T02:14:37;10.15;;;3.28;;
16743;SDS011;71724;-33.900;151.182;2024-02-16T02:17:05;10.10;;;3.25;;
16743;SDS011;71724;-33.900;151.182;2024-02-16T02:19:32;11.65;;;3.10;;
16743;SDS011;71724;-33.900;151.182;2024-02-16T02:21:59;12.02;;;3.85;;
16743;SDS011;71724;-33.900;151.182;2024-02-16T02:24:27;8.80;;;3.20;;
16743;SDS011;71724;-33.900;151.182;2024-02-16T02:26:54;6.90;;;2.63;;
16743;SDS011;71724;-33.900;151.182;2024-02-16T02:29:23;8.88;;;2.45;;
16743;SDS011;71724;-33.900;151.182;2024-02-16T02:31:50;7.10;;;2.20;;
16743;SDS011;71724;-33.900;151.182;2024-02-16T02:34:17;6.40;;;2.90;;
16743;SDS011;71724;-33.900;151.182;2024-02-16T02:36:46;9.13;;;3.38;;
16743;SDS011;71724;-33.900;151.182;2024-02-16T02:39:14;7.32;;;2.22;;
16743;SDS011;71724;-33.900;151.182;2024-02-16T02:41:41;6.05;;;2.45;;
16743;SDS011;71724;-33.900;151.182;2024-02-16T02:44:09;7.78;;;2.00;;
16743;SDS011;71724;-33.900;151.182;2024-02-16T02:46:36;12.85;;;2.20;;
16743;SDS011;71724;-33.900;151.182;2024-02-16T02:49:04;7.18;;;1.92;;
16743;SDS011;71724;-33.900;151.182;2024-02-16T02:51:31;10.98;;;2.60;;
16743;SDS011;71724;-33.900;151.182;2024-02-16T02:53:58;8.70;;;2.75;;
16743;SDS011;71724;-33.900;151.182;2024-02-16T02:56:26;5.78;;;2.20;;
16743;SDS011;71724;-33.900;151.182;2024-02-16T02:58:53;9.57;;;2.17;;
16743;SDS011;71724;-33.900;151.182;2024-02-16T03:01:21;7.75;;;2.22;;
16743;SDS011;71724;-33.900;151.182;2024-02-16T03:03:48;8.30;;;1.92;;
16743;SDS011;71724;-33.900;151.182;2024-02-16T03:06:19;7.22;;;1.73;;
16743;SDS011;71724;-33.900;151.182;2024-02-16T03:08:46;8.98;;;2.03;;
16743;SDS011;71724;-33.900;151.182;2024-02-16T03:11:14;8.88;;;1.70;;
16743;SDS011;71724;-33.900;151.182;2024-02-16T03:13:41;6.13;;;1.63;;
16743;SDS011;71724;-33.900;151.182;2024-02-16T03:16:08;6.53;;;1.88;;
16743;SDS011;71724;-33.900;151.182;2024-02-16T03:18:37;7.10;;;1.70;;
16743;SDS011;71724;-33.900;151.182;2024-02-16T03:21:04;6.40;;;1.85;;
16743;SDS011;71724;-33.900;151.182;2024-02-16T03:23:33;5.25;;;1.45;;
16743;SDS011;71724;-33.900;151.182;2024-02-16T03:26:00;7.22;;;2.00;;
16743;SDS011;71724;-33.900;151.182;2024-02-16T03:28:28;6.05;;;1.85;;
16743;SDS011;71724;-33.900;151.182;2024-02-16T03:30:55;8.73;;;2.20;;
16743;SDS011;71724;-33.900;151.182;2024-02-16T03:33:23;8.48;;;2.30;;
16743;SDS011;71724;-33.900;151.182;2024-02-16T03:35:50;12.02;;;2.10;;
16743;SDS011;71724;-33.900;151.182;2024-02-16T03:38:17;6.75;;;2.00;;
16743;SDS011;71724;-33.900;151.182;2024-02-16T03:40:45;8.80;;;2.05;;
16743;SDS011;71724;-33.900;151.182;2024-02-16T03:43:12;7.45;;;1.90;;
16743;SDS011;71724;-33.900;151.182;2024-02-16T03:45:39;8.43;;;1.90;;
16743;SDS011;71724;-33.900;151.182;2024-02-16T03:48:07;4.57;;;1.70;;
16743;SDS011;71724;-33.900;151.182;2024-02-16T03:50:34;6.88;;;1.80;;
16743;SDS011;71724;-33.900;151.182;2024-02-16T03:53:02;9.02;;;2.00;;
16743;SDS011;71724;-33.900;151.182;2024-02-16T03:55:29;7.32;;;1.90;;
16743;SDS011;71724;-33.900;151.182;2024-02-16T03:58:02;10.13;;;1.90;;
16743;SDS011;71724;-33.900;151.182;2024-02-16T04:00:29;9.23;;;1.83;;
16743;SDS011;71724;-33.900;151.182;2024-02-16T04:02:58;8.73;;;1.98;;
16743;SDS011;71724;-33.900;151.182;2024-02-16T04:05:25;7.80;;;2.08;;
16743;SDS011;71724;-33.900;151.182;2024-02-16T04:07:56;6.63;;;2.05;;
16743;SDS011;71724;-33.900;151.182;2024-02-16T04:10:27;7.25;;;1.75;;
16743;SDS011;71724;-33.900;151.182;2024-02-16T04:12:55;8.32;;;1.80;;
16743;SDS011;71724;-33.900;151.182;2024-02-16T04:15:22;7.90;;;1.73;;
16743;SDS011;71724;-33.900;151.182;2024-02-16T04:17:50;9.40;;;2.05;;
16743;SDS011;71724;-33.900;151.182;2024-02-16T04:20:18;8.45;;;1.60;;
16743;SDS011;71724;-33.900;151.182;2024-02-16T04:22:45;9.18;;;1.75;;
16743;SDS011;71724;-33.900;151.182;2024-02-16T04:25:13;7.55;;;2.20;;
16743;SDS011;71724;-33.900;151.182;2024-02-16T04:27:40;10.20;;;2.10;;
16743;SDS011;71724;-33.900;151.182;2024-02-16T04:30:08;6.90;;;1.70;;
16743;SDS011;71724;-33.900;151.182;2024-02-16T04:32:35;10.48;;;1.67;;
16743;SDS011;71724;-33.900;151.182;2024-02-16T04:35:03;8.18;;;1.70;;
16743;SDS011;71724;-33.900;151.182;2024-02-16T04:37:30;9.68;;;2.65;;
16743;SDS011;71724;-33.900;151.182;2024-02-16T04:39:58;7.95;;;1.98;;
16743;SDS011;71724;-33.900;151.182;2024-02-16T04:42:25;7.82;;;1.55;;
16743;SDS011;71724;-33.900;151.182;2024-02-16T04:44:53;7.47;;;1.80;;
16743;SDS011;71724;-33.900;151.182;2024-02-16T04:47:20;9.68;;;2.05;;
16743;SDS011;71724;-33.900;151.182;2024-02-16T04:49:47;11.48;;;2.45;;
16743;SDS011;71724;-33.900;151.182;2024-02-16T04:52:15;8.77;;;1.55;;
16743;SDS011;71724;-33.900;151.182;2024-02-16T04:54:42;9.57;;;2.20;;
16743;SDS011;71724;-33.900;151.182;2024-02-16T04:57:09;6.25;;;1.80;;
16743;SDS011;71724;-33.900;151.182;2024-02-16T04:59:37;6.57;;;1.73;;
16743;SDS011;71724;-33.900;151.182;2024-02-16T05:02:04;8.73;;;2.00;;
16743;SDS011;71724;-33.900;151.182;2024-02-16T05:04:35;8.25;;;1.95;;
16743;SDS011;71724;-33.900;151.182;2024-02-16T05:07:03;8.50;;;2.13;;
16743;SDS011;71724;-33.900;151.182;2024-02-16T05:09:34;7.57;;;1.60;;
16743;SDS011;71724;-33.900;151.182;2024-02-16T05:12:01;8.82;;;1.55;;
16743;SDS011;71724;-33.900;151.182;2024-02-16T05:14:29;5.63;;;1.58;;
16743;SDS011;71724;-33.900;151.182;2024-02-16T05:16:56;9.52;;;1.80;;
16743;SDS011;71724;-33.900;151.182;2024-02-16T05:19:28;7.10;;;2.10;;
16743;SDS011;71724;-33.900;151.182;2024-02-16T05:21:59;7.72;;;2.63;;
16743;SDS011;71724;-33.900;151.182;2024-02-16T05:24:27;8.70;;;2.22;;
16743;SDS011;71724;-33.900;151.182;2024-02-16T05:26:54;10.00;;;2.20;;
16743;SDS011;71724;-33.900;151.182;2024-02-16T05:29:22;10.65;;;2.70;;
16743;SDS011;71724;-33.900;151.182;2024-02-16T05:31:53;8.85;;;2.50;;
16743;SDS011;71724;-33.900;151.182;2024-02-16T05:34:20;7.90;;;2.35;;
16743;SDS011;71724;-33.900;151.182;2024-02-16T05:36:47;11.18;;;2.78;;
16743;SDS011;71724;-33.900;151.182;2024-02-16T05:39:16;10.10;;;2.22;;
16743;SDS011;71724;-33.900;151.182;2024-02-16T05:41:52;9.95;;;2.63;;
16743;SDS011;71724;-33.900;151.182;2024-02-16T05:44:20;5.57;;;1.70;;
16743;SDS011;71724;-33.900;151.182;2024-02-16T05:46:47;15.50;;;2.33;;
16743;SDS011;71724;-33.900;151.182;2024-02-16T05:49:15;11.95;;;2.72;;
16743;SDS011;71724;-33.900;151.182;2024-02-16T05:51:42;14.35;;;2.70;;
16743;SDS011;71724;-33.900;151.182;2024-02-16T05:54:29;12.00;;;2.35;;
16743;SDS011;71724;-33.900;151.182;2024-02-16T05:56:57;9.55;;;2.30;;
16743;SDS011;71724;-33.900;151.182;2024-02-16T05:59:24;15.02;;;2.70;;
16743;SDS011;71724;-33.900;151.182;2024-02-16T06:01:52;6.85;;;2.22;;
16743;SDS011;71724;-33.900;151.182;2024-02-16T06:04:20;9.02;;;2.45;;
16743;SDS011;71724;-33.900;151.182;2024-02-16T06:06:47;11.20;;;2.78;;
16743;SDS011;71724;-33.900;151.182;2024-02-16T06:09:14;9.77;;;2.30;;
16743;SDS011;71724;-33.900;151.182;2024-02-16T06:11:42;12.20;;;2.60;;
16743;SDS011;71724;-33.900;151.182;2024-02-16T06:14:09;9.40;;;2.30;;
16743;SDS011;71724;-33.900;151.182;2024-02-16T06:16:36;8.40;;;2.60;;
16743;SDS011;71724;-33.900;151.182;2024-02-16T06:19:04;11.65;;;2.67;;
16743;SDS011;71724;-33.900;151.182;2024-02-16T06:21:35;9.60;;;2.15;;
16743;SDS011;71724;-33.900;151.182;2024-02-16T06:24:02;10.10;;;2.00;;
16743;SDS011;71724;-33.900;151.182;2024-02-16T06:26:30;7.28;;;1.55;;
16743;SDS011;71724;-33.900;151.182;2024-02-16T06:28:57;8.57;;;2.15;;
16743;SDS011;71724;-33.900;151.182;2024-02-16T06:31:25;10.00;;;2.30;;
16743;SDS011;71724;-33.900;151.182;2024-02-16T06:33:52;6.25;;;1.45;;
16743;SDS011;71724;-33.900;151.182;2024-02-16T06:36:19;7.78;;;1.83;;
16743;SDS011;71724;-33.900;151.182;2024-02-16T06:38:47;4.78;;;1.63;;
16743;SDS011;71724;-33.900;151.182;2024-02-16T06:41:14;6.75;;;1.92;;
16743;SDS011;71724;-33.900;151.182;2024-02-16T06:43:42;6.82;;;1.88;;
16743;SDS011;71724;-33.900;151.182;2024-02-16T06:46:10;6.30;;;1.98;;
16743;SDS011;71724;-33.900;151.182;2024-02-16T06:48:40;6.57;;;1.90;;
16743;SDS011;71724;-33.900;151.182;2024-02-16T06:51:08;9.32;;;2.00;;
16743;SDS011;71724;-33.900;151.182;2024-02-16T06:53:35;6.75;;;1.83;;
16743;SDS011;71724;-33.900;151.182;2024-02-16T06:56:03;6.13;;;1.92;;
16743;SDS011;71724;-33.900;151.182;2024-02-16T06:58:30;8.50;;;1.52;;
16743;SDS011;71724;-33.900;151.182;2024-02-16T07:00:58;5.20;;;1.70;;
16743;SDS011;71724;-33.900;151.182;2024-02-16T07:03:29;9.65;;;2.40;;
16743;SDS011;71724;-33.900;151.182;2024-02-16T07:05:56;9.20;;;2.25;;
16743;SDS011;71724;-33.900;151.182;2024-02-16T07:08:23;9.52;;;2.67;;
16743;SDS011;71724;-33.900;151.182;2024-02-16T07:10:51;7.18;;;1.92;;
16743;SDS011;71724;-33.900;151.182;2024-02-16T07:13:18;14.98;;;2.50;;
16743;SDS011;71724;-33.900;151.182;2024-02-16T07:15:46;12.35;;;2.67;;
16743;SDS011;71724;-33.900;151.182;2024-02-16T07:18:17;10.68;;;2.38;;
16743;SDS011;71724;-33.900;151.182;2024-02-16T07:20:45;11.63;;;3.13;;
16743;SDS011;71724;-33.900;151.182;2024-02-16T07:25:58;11.00;;;2.60;;
16743;SDS011;71724;-33.900;151.182;2024-02-16T07:28:27;16.65;;;3.13;;
16743;SDS011;71724;-33.900;151.182;2024-02-16T07:30:57;9.40;;;2.45;;
16743;SDS011;71724;-33.900;151.182;2024-02-16T07:33:25;15.18;;;2.65;;
16743;SDS011;71724;-33.900;151.182;2024-02-16T07:35:53;12.25;;;2.70;;
16743;SDS011;71724;-33.900;151.182;2024-02-16T07:38:21;13.95;;;2.60;;
16743;SDS011;71724;-33.900;151.182;2024-02-16T07:40:50;10.30;;;2.20;;
16743;SDS011;71724;-33.900;151.182;2024-02-16T07:43:17;14.85;;;3.15;;
16743;SDS011;71724;-33.900;151.182;2024-02-16T07:45:45;11.43;;;3.25;;
16743;SDS011;71724;-33.900;151.182;2024-02-16T07:48:12;13.50;;;2.80;;
16743;SDS011;71724;-33.900;151.182;2024-02-16T07:50:40;15.38;;;2.80;;
16743;SDS011;71724;-33.900;151.182;2024-02-16T07:53:07;10.75;;;2.88;;
16743;SDS011;71724;-33.900;151.182;2024-02-16T07:55:37;18.48;;;3.42;;
16743;SDS011;71724;-33.900;151.182;2024-02-16T07:58:04;19.52;;;3.55;;
16743;SDS011;71724;-33.900;151.182;2024-02-16T08:00:33;13.80;;;3.05;;
16743;SDS011;71724;-33.900;151.182;2024-02-16T08:03:25;9.32;;;2.85;;
16743;SDS011;71724;-33.900;151.182;2024-02-16T08:05:56;15.07;;;3.85;;
16743;SDS011;71724;-33.900;151.182;2024-02-16T08:08:34;14.18;;;3.20;;
16743;SDS011;71724;-33.900;151.182;2024-02-16T08:11:13;10.15;;;3.00;;
16743;SDS011;71724;-33.900;151.182;2024-02-16T08:13:47;14.13;;;3.45;;
16743;SDS011;71724;-33.900;151.182;2024-02-16T08:16:18;12.95;;;3.13;;
16743;SDS011;71724;-33.900;151.182;2024-02-16T08:18:46;15.55;;;3.03;;
16743;SDS011;71724;-33.900;151.182;2024-02-16T08:21:13;12.43;;;3.78;;
16743;SDS011;71724;-33.900;151.182;2024-02-16T08:23:41;16.33;;;3.60;;
16743;SDS011;71724;-33.900;151.182;2024-02-16T08:26:10;14.77;;;4.45;;
16743;SDS011;71724;-33.900;151.182;2024-02-16T08:28:37;10.63;;;3.40;;
16743;SDS011;71724;-33.900;151.182;2024-02-16T08:31:06;21.63;;;4.80;;
16743;SDS011;71724;-33.900;151.182;2024-02-16T08:33:33;16.67;;;3.55;;
16743;SDS011;71724;-33.900;151.182;2024-02-16T08:36:03;17.50;;;3.40;;
16743;SDS011;71724;-33.900;151.182;2024-02-16T08:38:33;20.73;;;4.00;;
16743;SDS011;71724;-33.900;151.182;2024-02-16T08:41:09;21.33;;;5.00;;
16743;SDS011;71724;-33.900;151.182;2024-02-16T08:43:44;16.83;;;3.95;;
16743;SDS011;71724;-33.900;151.182;2024-02-16T08:46:30;12.30;;;3.20;;
16743;SDS011;71724;-33.900;151.182;2024-02-16T08:49:17;12.27;;;3.53;;
16743;SDS011;71724;-33.900;151.182;2024-02-16T08:51:45;17.38;;;4.60;;
16743;SDS011;71724;-33.900;151.182;2024-02-16T08:54:13;15.63;;;3.53;;
16743;SDS011;71724;-33.900;151.182;2024-02-16T08:56:43;17.02;;;3.85;;
16743;SDS011;71724;-33.900;151.182;2024-02-16T08:59:11;15.98;;;3.65;;
16743;SDS011;71724;-33.900;151.182;2024-02-16T09:01:39;15.73;;;3.53;;
16743;SDS011;71724;-33.900;151.182;2024-02-16T09:04:06;15.13;;;3.80;;
16743;SDS011;71724;-33.900;151.182;2024-02-16T09:06:34;14.60;;;3.50;;
16743;SDS011;71724;-33.900;151.182;2024-02-16T09:09:01;14.40;;;3.50;;
16743;SDS011;71724;-33.900;151.182;2024-02-16T09:11:29;19.23;;;4.68;;
16743;SDS011;71724;-33.900;151.182;2024-02-16T09:13:57;19.17;;;4.22;;
16743;SDS011;71724;-33.900;151.182;2024-02-16T09:16:25;17.63;;;3.40;;
16743;SDS011;71724;-33.900;151.182;2024-02-16T09:18:53;14.35;;;3.78;;
16743;SDS011;71724;-33.900;151.182;2024-02-16T09:21:21;15.20;;;3.08;;
16743;SDS011;71724;-33.900;151.182;2024-02-16T09:23:55;15.80;;;3.50;;
16743;SDS011;71724;-33.900;151.182;2024-02-16T09:26:27;15.63;;;3.03;;
16743;SDS011;71724;-33.900;151.182;2024-02-16T09:28:59;16.27;;;2.92;;
16743;SDS011;71724;-33.900;151.182;2024-02-16T09:31:27;15.93;;;3.75;;
16743;SDS011;71724;-33.900;151.182;2024-02-16T09:33:54;17.17;;;3.63;;
16743;SDS011;71724;-33.900;151.182;2024-02-16T09:36:22;20.63;;;3.83;;
16743;SDS011;71724;-33.900;151.182;2024-02-16T09:38:49;22.45;;;4.07;;
16743;SDS011;71724;-33.900;151.182;2024-02-16T09:41:16;17.00;;;3.80;;
16743;SDS011;71724;-33.900;151.182;2024-02-16T09:43:44;18.38;;;3.45;;
16743;SDS011;71724;-33.900;151.182;2024-02-16T09:46:11;16.17;;;3.53;;
16743;SDS011;71724;-33.900;151.182;2024-02-16T09:48:39;15.68;;;2.78;;
16743;SDS011;71724;-33.900;151.182;2024-02-16T09:51:09;15.73;;;3.05;;
16743;SDS011;71724;-33.900;151.182;2024-02-16T09:53:37;11.40;;;2.70;;
16743;SDS011;71724;-33.900;151.182;2024-02-16T09:56:07;15.27;;;3.03;;
16743;SDS011;71724;-33.900;151.182;2024-02-16T09:58:37;8.85;;;2.80;;
16743;SDS011;71724;-33.900;151.182;2024-02-16T10:01:07;14.18;;;2.72;;
16743;SDS011;71724;-33.900;151.182;2024-02-16T10:03:44;14.32;;;2.75;;
16743;SDS011;71724;-33.900;151.182;2024-02-16T10:06:11;15.07;;;2.88;;
16743;SDS011;71724;-33.900;151.182;2024-02-16T10:08:47;13.20;;;3.10;;
16743;SDS011;71724;-33.900;151.182;2024-02-16T10:11:20;15.93;;;3.42;;
16743;SDS011;71724;-33.900;151.182;2024-02-16T10:13:56;15.70;;;2.92;;
16743;SDS011;71724;-33.900;151.182;2024-02-16T10:16:25;10.65;;;2.53;;
16743;SDS011;71724;-33.900;151.182;2024-02-16T10:19:03;9.90;;;2.28;;
16743;SDS011;71724;-33.900;151.182;2024-02-16T10:21:36;12.65;;;2.40;;
16743;SDS011;71724;-33.900;151.182;2024-02-16T10:24:09;12.57;;;2.42;;
16743;SDS011;71724;-33.900;151.182;2024-02-16T10:26:43;9.05;;;2.30;;
16743;SDS011;71724;-33.900;151.182;2024-02-16T10:29:11;12.30;;;2.78;;
16743;SDS011;71724;-33.900;151.182;2024-02-16T10:31:40;13.18;;;2.80;;
16743;SDS011;71724;-33.900;151.182;2024-02-16T10:34:08;13.52;;;2.80;;
16743;SDS011;71724;-33.900;151.182;2024-02-16T10:36:37;12.85;;;2.35;;
16743;SDS011;71724;-33.900;151.182;2024-02-16T10:39:19;16.30;;;2.72;;
16743;SDS011;71724;-33.900;151.182;2024-02-16T10:41:48;10.20;;;2.40;;
16743;SDS011;71724;-33.900;151.182;2024-02-16T10:44:17;14.27;;;2.92;;
16743;SDS011;71724;-33.900;151.182;2024-02-16T10:46:44;12.15;;;2.45;;
16743;SDS011;71724;-33.900;151.182;2024-02-16T10:49:12;12.05;;;2.50;;
16743;SDS011;71724;-33.900;151.182;2024-02-16T10:51:44;14.57;;;2.83;;
16743;SDS011;71724;-33.900;151.182;2024-02-16T10:54:17;15.23;;;2.63;;
16743;SDS011;71724;-33.900;151.182;2024-02-16T10:56:53;10.50;;;2.03;;
16743;SDS011;71724;-33.900;151.182;2024-02-16T10:59:22;10.63;;;2.25;;
16743;SDS011;71724;-33.900;151.182;2024-02-16T11:01:58;12.50;;;2.40;;
16743;SDS011;71724;-33.900;151.182;2024-02-16T11:04:37;14.20;;;2.40;;
16743;SDS011;71724;-33.900;151.182;2024-02-16T11:07:16;15.02;;;2.65;;
16743;SDS011;71724;-33.900;151.182;2024-02-16T11:09:45;12.40;;;2.40;;
16743;SDS011;71724;-33.900;151.182;2024-02-16T11:12:23;13.00;;;2.60;;
16743;SDS011;71724;-33.900;151.182;2024-02-16T11:15:00;12.68;;;2.55;;
16743;SDS011;71724;-33.900;151.182;2024-02-16T11:17:35;18.63;;;3.20;;
16743;SDS011;71724;-33.900;151.182;2024-02-16T11:20:06;13.13;;;2.58;;
16743;SDS011;71724;-33.900;151.182;2024-02-16T11:22:39;12.38;;;2.38;;
16743;SDS011;71724;-33.900;151.182;2024-02-16T11:25:09;11.30;;;2.40;;
16743;SDS011;71724;-33.900;151.182;2024-02-16T11:27:41;19.27;;;3.17;;
16743;SDS011;71724;-33.900;151.182;2024-02-16T11:30:11;12.50;;;2.10;;
16743;SDS011;71724;-33.900;151.182;2024-02-16T11:35:24;11.15;;;2.47;;
16743;SDS011;71724;-33.900;151.182;2024-02-16T11:37:51;7.93;;;2.38;;
16743;SDS011;71724;-33.900;151.182;2024-02-16T11:40:21;12.20;;;2.63;;
16743;SDS011;71724;-33.900;151.182;2024-02-16T11:42:57;16.38;;;2.50;;
16743;SDS011;71724;-33.900;151.182;2024-02-16T11:45:27;13.93;;;2.72;;
16743;SDS011;71724;-33.900;151.182;2024-02-16T11:48:05;14.82;;;2.67;;
16743;SDS011;71724;-33.900;151.182;2024-02-16T11:50:33;15.68;;;2.95;;
16743;SDS011;71724;-33.900;151.182;2024-02-16T11:53:00;15.70;;;2.35;;
16743;SDS011;71724;-33.900;151.182;2024-02-16T11:55:27;15.82;;;2.80;;
16743;SDS011;71724;-33.900;151.182;2024-02-16T11:57:55;14.68;;;2.88;;
16743;SDS011;71724;-33.900;151.182;2024-02-16T12:00:22;9.75;;;2.20;;
16743;SDS011;71724;-33.900;151.182;2024-02-16T12:02:58;16.98;;;2.50;;
16743;SDS011;71724;-33.900;151.182;2024-02-16T12:05:26;12.02;;;1.92;;
16743;SDS011;71724;-33.900;151.182;2024-02-16T12:07:57;12.95;;;2.58;;
16743;SDS011;71724;-33.900;151.182;2024-02-16T12:10:25;11.75;;;2.50;;
16743;SDS011;71724;-33.900;151.182;2024-02-16T12:12:53;14.82;;;2.70;;
16743;SDS011;71724;-33.900;151.182;2024-02-16T12:15:21;19.15;;;3.17;;
16743;SDS011;71724;-33.900;151.182;2024-02-16T12:17:57;17.08;;;2.95;;
16743;SDS011;71724;-33.900;151.182;2024-02-16T12:20:27;14.20;;;3.25;;
16743;SDS011;71724;-33.900;151.182;2024-02-16T12:22:57;14.23;;;2.88;;
16743;SDS011;71724;-33.900;151.182;2024-02-16T12:25:27;19.33;;;2.67;;
16743;SDS011;71724;-33.900;151.182;2024-02-16T12:27:55;14.70;;;2.70;;
16743;SDS011;71724;-33.900;151.182;2024-02-16T12:30:22;11.93;;;2.47;;
16743;SDS011;71724;-33.900;151.182;2024-02-16T12:32:50;16.75;;;2.60;;
16743;SDS011;71724;-33.900;151.182;2024-02-16T12:35:18;13.75;;;2.53;;
16743;SDS011;71724;-33.900;151.182;2024-02-16T12:37:45;17.63;;;2.97;;
16743;SDS011;71724;-33.900;151.182;2024-02-16T12:40:13;8.95;;;2.40;;
16743;SDS011;71724;-33.900;151.182;2024-02-16T12:42:40;16.02;;;2.65;;
16743;SDS011;71724;-33.900;151.182;2024-02-16T12:45:08;13.93;;;2.35;;
16743;SDS011;71724;-33.900;151.182;2024-02-16T12:47:36;14.35;;;2.28;;
16743;SDS011;71724;-33.900;151.182;2024-02-16T12:50:03;13.55;;;2.45;;
16743;SDS011;71724;-33.900;151.182;2024-02-16T12:52:31;14.38;;;2.55;;
16743;SDS011;71724;-33.900;151.182;2024-02-16T12:55:00;15.25;;;2.72;;
16743;SDS011;71724;-33.900;151.182;2024-02-16T12:57:28;15.55;;;2.72;;
16743;SDS011;71724;-33.900;151.182;2024-02-16T12:59:55;12.88;;;2.28;;
16743;SDS011;71724;-33.900;151.182;2024-02-16T13:02:23;11.27;;;2.28;;
16743;SDS011;71724;-33.900;151.182;2024-02-16T13:04:50;13.45;;;2.42;;
16743;SDS011;71724;-33.900;151.182;2024-02-16T13:07:18;14.13;;;2.50;;
16743;SDS011;71724;-33.900;151.182;2024-02-16T13:09:47;9.93;;;2.30;;
16743;SDS011;71724;-33.900;151.182;2024-02-16T13:12:22;19.05;;;2.80;;
16743;SDS011;71724;-33.900;151.182;2024-02-16T13:14:54;14.38;;;2.80;;
16743;SDS011;71724;-33.900;151.182;2024-02-16T13:17:29;8.20;;;2.08;;
16743;SDS011;71724;-33.900;151.182;2024-02-16T13:20:02;12.05;;;2.67;;
16743;SDS011;71724;-33.900;151.182;2024-02-16T13:22:35;14.60;;;2.63;;
16743;SDS011;71724;-33.900;151.182;2024-02-16T13:25:04;14.70;;;2.88;;
16743;SDS011;71724;-33.900;151.182;2024-02-16T13:27:48;12.30;;;2.42;;
16743;SDS011;71724;-33.900;151.182;2024-02-16T13:30:17;9.32;;;2.03;;
16743;SDS011;71724;-33.900;151.182;2024-02-16T13:32:48;9.45;;;2.00;;
16743;SDS011;71724;-33.900;151.182;2024-02-16T13:35:20;12.57;;;2.17;;
16743;SDS011;71724;-33.900;151.182;2024-02-16T13:37:50;7.13;;;1.95;;
16743;SDS011;71724;-33.900;151.182;2024-02-16T13:40:18;13.80;;;2.08;;
16743;SDS011;71724;-33.900;151.182;2024-02-16T13:42:47;10.63;;;2.30;;
16743;SDS011;71724;-33.900;151.182;2024-02-16T13:45:15;12.23;;;2.30;;
16743;SDS011;71724;-33.900;151.182;2024-02-16T13:47:43;9.60;;;2.25;;
16743;SDS011;71724;-33.900;151.182;2024-02-16T13:50:12;6.68;;;1.52;;
16743;SDS011;71724;-33.900;151.182;2024-02-16T13:52:40;10.52;;;1.92;;
16743;SDS011;71724;-33.900;151.182;2024-02-16T13:55:12;7.43;;;1.88;;
16743;SDS011;71724;-33.900;151.182;2024-02-16T13:58:01;11.95;;;2.40;;
16743;SDS011;71724;-33.900;151.182;2024-02-16T14:00:36;6.53;;;1.73;;
16743;SDS011;71724;-33.900;151.182;2024-02-16T14:03:11;9.30;;;2.00;;
16743;SDS011;71724;-33.900;151.182;2024-02-16T14:05:42;6.55;;;1.77;;
16743;SDS011;71724;-33.900;151.182;2024-02-16T14:08:16;11.85;;;2.58;;
16743;SDS011;71724;-33.900;151.182;2024-02-16T14:10:46;10.38;;;2.13;;
16743;SDS011;71724;-33.900;151.182;2024-02-16T14:13:13;11.55;;;2.38;;
16743;SDS011;71724;-33.900;151.182;2024-02-16T14:15:41;8.93;;;2.20;;
16743;SDS011;71724;-33.900;151.182;2024-02-16T14:18:09;11.52;;;2.72;;
16743;SDS011;71724;-33.900;151.182;2024-02-16T14:20:36;13.15;;;2.42;;